PWSweather.com
Personal Weather Stations
Station Observations
PICKERING
North Yorkshire, PickeringGB

North YorkshirePickeringGB

Lat: 54.2494, Lon: -0.7725

Elevation: 192

Station Type: Oregon Scientific WMR100

http://www.yorkshirewalker.co.uk/weather/

High Low Average
Temperature 0.0°F0.0°F 0.0°F0.0°F 0.0°F0.0°F
Dew Point 0.0°F0.0°F 0.0°F0.0°F 0.0°F0.0°F
Winds Calm -Calm - Calm Calm Calm Calm
Wind Gusts -- -- --
Humidity 0% 0% 0%
Pressure 0.00 in0.00 in 0.00 in0.00 in -
Precipitation 0.00 in0.0 mm - -
Hour Temp Dew Point Humidity Winds Wind Gusts Pressure Precip Precip Rate Daily Precip Total
12:00 AM 35.4°F1.9°C 30.2°F-1.0°C 82% 1.8 mph WSW2.9 kmh WSW 3.6 mph5.8 kmh 29.65 in1004.1 mb 0.00 in0.0 mm 0.00 in0.0 mm 0.00 in0.0 mm
12:05 AM 36.0°F2.2°C 32.0°F0.0°C 82% 2.8 mph WSW4.5 kmh WSW 4.3 mph6.9 kmh 29.65 in1004.1 mb 0.00 in0.0 mm 0.00 in0.0 mm 0.00 in0.0 mm
12:10 AM 36.1°F2.3°C 32.0°F0.0°C 82% 3.1 mph WSW5.0 kmh WSW 4.3 mph6.9 kmh 29.65 in1004.1 mb 0.00 in0.0 mm 0.00 in0.0 mm 0.00 in0.0 mm
12:15 AM 36.0°F2.2°C 32.0°F0.0°C 82% 2.7 mph WSW4.3 kmh WSW 4.0 mph6.4 kmh 29.65 in1004.1 mb 0.00 in0.0 mm 0.00 in0.0 mm 0.00 in0.0 mm
12:20 AM 36.1°F2.3°C 32.0°F0.0°C 82% 3.0 mph WSW4.8 kmh WSW 4.9 mph7.9 kmh 29.65 in1004.1 mb 0.00 in0.0 mm 0.00 in0.0 mm 0.00 in0.0 mm
12:25 AM 36.3°F2.4°C 32.0°F0.0°C 82% 3.6 mph WSW5.8 kmh WSW 4.9 mph7.9 kmh 29.68 in1005.1 mb 0.00 in0.0 mm 0.00 in0.0 mm 0.00 in0.0 mm
12:30 AM 36.3°F2.4°C 32.0°F0.0°C 82% 3.3 mph WSW5.3 kmh WSW 4.9 mph7.9 kmh 29.68 in1005.1 mb 0.00 in0.0 mm 0.00 in0.0 mm 0.00 in0.0 mm
12:35 AM 35.6°F2.0°C 32.0°F0.0°C 82% 2.0 mph WSW3.2 kmh WSW 4.3 mph6.9 kmh 29.68 in1005.1 mb 0.00 in0.0 mm 0.00 in0.0 mm 0.00 in0.0 mm
12:40 AM 35.2°F1.8°C 30.2°F-1.0°C 82% 0.7 mph WSW1.1 kmh WSW 2.0 mph3.2 kmh 29.68 in1005.1 mb 0.00 in0.0 mm 0.00 in0.0 mm 0.00 in0.0 mm
12:45 AM 35.2°F1.8°C 30.2°F-1.0°C 82% 0.2 mph W0.3 kmh W 0.9 mph1.4 kmh 29.68 in1005.1 mb 0.00 in0.0 mm 0.00 in0.0 mm 0.00 in0.0 mm
12:50 AM 34.9°F1.6°C 30.2°F-1.0°C 82% Calm Calm -- 29.68 in1005.1 mb 0.00 in0.0 mm 0.00 in0.0 mm 0.00 in0.0 mm
12:55 AM 34.5°F1.4°C 30.2°F-1.0°C 82% 0.5 mph WSW0.8 kmh WSW 2.5 mph4.0 kmh 29.68 in1005.1 mb 0.00 in0.0 mm 0.00 in0.0 mm 0.00 in0.0 mm
01:00 AM 35.1°F1.7°C 30.2°F-1.0°C 82% 1.1 mph W1.8 kmh W 2.7 mph4.3 kmh 29.68 in1005.1 mb 0.00 in0.0 mm 0.00 in0.0 mm 0.00 in0.0 mm
01:05 AM 34.7°F1.5°C 30.2°F-1.0°C 82% 1.0 mph W1.6 kmh W 2.7 mph4.3 kmh 29.68 in1005.1 mb 0.00 in0.0 mm 0.00 in0.0 mm 0.00 in0.0 mm
01:10 AM 34.3°F1.3°C 30.2°F-1.0°C 82% 0.2 mph WNW0.3 kmh WNW 1.1 mph1.8 kmh 29.68 in1005.1 mb 0.00 in0.0 mm 0.00 in0.0 mm 0.00 in0.0 mm
01:15 AM 34.2°F1.2°C 30.2°F-1.0°C 82% Calm Calm -- 29.68 in1005.1 mb 0.00 in0.0 mm 0.00 in0.0 mm 0.00 in0.0 mm
01:25 AM 34.0°F1.1°C 30.2°F-1.0°C 83% 0.4 mph SW0.6 kmh SW 1.3 mph2.1 kmh 29.68 in1005.1 mb 0.00 in0.0 mm 0.00 in0.0 mm 0.00 in0.0 mm
01:30 AM 34.0°F1.1°C 30.2°F-1.0°C 83% 1.0 mph SW1.6 kmh SW 2.0 mph3.2 kmh 29.68 in1005.1 mb 0.00 in0.0 mm 0.00 in0.0 mm 0.00 in0.0 mm
01:35 AM 34.0°F1.1°C 30.2°F-1.0°C 83% 1.2 mph SSW1.9 kmh SSW 2.7 mph4.3 kmh 29.68 in1005.1 mb 0.00 in0.0 mm 0.00 in0.0 mm 0.00 in0.0 mm
01:45 AM 33.8°F1.0°C 30.2°F-1.0°C 83% 0.3 mph SW0.5 kmh SW 1.3 mph2.1 kmh 29.68 in1005.1 mb 0.00 in0.0 mm 0.00 in0.0 mm 0.00 in0.0 mm
01:50 AM 33.4°F0.8°C 30.2°F-1.0°C 83% 0.2 mph SW0.3 kmh SW 2.7 mph4.3 kmh 29.68 in1005.1 mb 0.00 in0.0 mm 0.00 in0.0 mm 0.00 in0.0 mm
01:55 AM 33.6°F0.9°C 30.2°F-1.0°C 83% 0.8 mph SW1.3 kmh SW 2.7 mph4.3 kmh 29.71 in1006.1 mb 0.00 in0.0 mm 0.00 in0.0 mm 0.00 in0.0 mm
02:00 AM 33.3°F0.7°C 28.4°F-2.0°C 83% 1.3 mph WSW2.1 kmh WSW 2.7 mph4.3 kmh 29.71 in1006.1 mb 0.00 in0.0 mm 0.00 in0.0 mm 0.00 in0.0 mm
02:05 AM 33.3°F0.7°C 28.4°F-2.0°C 83% 1.7 mph W2.7 kmh W 2.9 mph4.7 kmh 29.71 in1006.1 mb 0.00 in0.0 mm 0.00 in0.0 mm 0.00 in0.0 mm
02:10 AM 33.1°F0.6°C 28.4°F-2.0°C 83% 1.5 mph W2.4 kmh W 2.9 mph4.7 kmh 29.71 in1006.1 mb 0.00 in0.0 mm 0.00 in0.0 mm 0.00 in0.0 mm
02:15 AM 32.7°F0.4°C 28.4°F-2.0°C 83% 0.7 mph W1.1 kmh W 2.2 mph3.5 kmh 29.71 in1006.1 mb 0.00 in0.0 mm 0.00 in0.0 mm 0.00 in0.0 mm
02:20 AM 32.9°F0.5°C 28.4°F-2.0°C 83% 1.1 mph WSW1.8 kmh WSW 2.5 mph4.0 kmh 29.71 in1006.1 mb 0.00 in0.0 mm 0.00 in0.0 mm 0.00 in0.0 mm
02:25 AM 33.8°F1.0°C 30.2°F-1.0°C 83% 1.7 mph WSW2.7 kmh WSW 2.7 mph4.3 kmh 29.71 in1006.1 mb 0.00 in0.0 mm 0.00 in0.0 mm 0.00 in0.0 mm
02:30 AM 34.0°F1.1°C 30.2°F-1.0°C 83% 2.2 mph WSW3.5 kmh WSW 4.9 mph7.9 kmh 29.71 in1006.1 mb 0.00 in0.0 mm 0.00 in0.0 mm 0.00 in0.0 mm
02:35 AM 33.6°F0.9°C 30.2°F-1.0°C 83% 1.7 mph WSW2.7 kmh WSW 4.9 mph7.9 kmh 29.71 in1006.1 mb 0.00 in0.0 mm 0.00 in0.0 mm 0.00 in0.0 mm
02:40 AM 33.4°F0.8°C 30.2°F-1.0°C 83% 1.3 mph W2.1 kmh W 3.4 mph5.5 kmh 29.71 in1006.1 mb 0.00 in0.0 mm 0.00 in0.0 mm 0.00 in0.0 mm
02:45 AM 33.3°F0.7°C 28.4°F-2.0°C 83% 1.6 mph W2.6 kmh W 3.4 mph5.5 kmh 29.71 in1006.1 mb 0.00 in0.0 mm 0.00 in0.0 mm 0.00 in0.0 mm
02:50 AM 32.9°F0.5°C 28.4°F-2.0°C 83% 1.3 mph W2.1 kmh W 2.5 mph4.0 kmh 29.71 in1006.1 mb 0.00 in0.0 mm 0.00 in0.0 mm 0.00 in0.0 mm
02:55 AM 32.7°F0.4°C 28.4°F-2.0°C 83% 1.1 mph W1.8 kmh W 1.6 mph2.6 kmh 29.71 in1006.1 mb 0.00 in0.0 mm 0.00 in0.0 mm 0.00 in0.0 mm
03:00 AM 32.4°F0.2°C 28.4°F-2.0°C 83% 0.9 mph WNW1.4 kmh WNW 1.6 mph2.6 kmh 29.71 in1006.1 mb 0.00 in0.0 mm 0.00 in0.0 mm 0.00 in0.0 mm
03:05 AM 32.4°F0.2°C 28.4°F-2.0°C 83% 0.5 mph WNW0.8 kmh WNW 1.1 mph1.8 kmh 29.71 in1006.1 mb 0.00 in0.0 mm 0.00 in0.0 mm 0.00 in0.0 mm
03:10 AM 32.2°F0.1°C 28.4°F-2.0°C 83% 0.7 mph WNW1.1 kmh WNW 1.3 mph2.1 kmh 29.71 in1006.1 mb 0.00 in0.0 mm 0.00 in0.0 mm 0.00 in0.0 mm
03:15 AM 32.2°F0.1°C 28.4°F-2.0°C 83% 0.7 mph WNW1.1 kmh WNW 1.3 mph2.1 kmh 29.71 in1006.1 mb 0.00 in0.0 mm 0.00 in0.0 mm 0.00 in0.0 mm
03:20 AM 32.0°F0.0°C 26.6°F-3.0°C 83% 0.4 mph NW0.6 kmh NW 1.1 mph1.8 kmh 29.71 in1006.1 mb 0.00 in0.0 mm 0.00 in0.0 mm 0.00 in0.0 mm
03:25 AM 32.0°F0.0°C 26.6°F-3.0°C 83% 0.4 mph NNW0.6 kmh NNW 1.3 mph2.1 kmh 29.71 in1006.1 mb 0.00 in0.0 mm 0.00 in0.0 mm 0.00 in0.0 mm
03:30 AM 31.8°F-0.1°C 26.6°F-3.0°C 83% 0.3 mph N0.5 kmh N 1.3 mph2.1 kmh 29.71 in1006.1 mb 0.00 in0.0 mm 0.00 in0.0 mm 0.00 in0.0 mm
03:35 AM 31.5°F-0.3°C 24.8°F-4.0°C 83% 0.3 mph N0.5 kmh N 1.3 mph2.1 kmh 29.71 in1006.1 mb 0.00 in0.0 mm 0.00 in0.0 mm 0.00 in0.0 mm
03:40 AM 31.5°F-0.3°C 24.8°F-4.0°C 83% 0.4 mph NNW0.6 kmh NNW 0.9 mph1.4 kmh 29.71 in1006.1 mb 0.00 in0.0 mm 0.00 in0.0 mm 0.00 in0.0 mm
03:45 AM 31.6°F-0.2°C 26.6°F-3.0°C 83% 0.8 mph NW1.3 kmh NW 1.6 mph2.6 kmh 29.71 in1006.1 mb 0.00 in0.0 mm 0.00 in0.0 mm 0.00 in0.0 mm
03:50 AM 31.6°F-0.2°C 26.6°F-3.0°C 84% 0.6 mph NW1.0 kmh NW 1.6 mph2.6 kmh 29.71 in1006.1 mb 0.00 in0.0 mm 0.00 in0.0 mm 0.00 in0.0 mm
03:55 AM 31.8°F-0.1°C 26.6°F-3.0°C 84% 0.1 mph NW0.2 kmh NW 1.1 mph1.8 kmh 29.71 in1006.1 mb 0.00 in0.0 mm 0.00 in0.0 mm 0.00 in0.0 mm
04:00 AM 32.5°F0.3°C 28.4°F-2.0°C 84% 0.2 mph W0.3 kmh W 1.6 mph2.6 kmh 29.71 in1006.1 mb 0.00 in0.0 mm 0.00 in0.0 mm 0.00 in0.0 mm
04:05 AM 32.5°F0.3°C 28.4°F-2.0°C 84% 0.6 mph NW1.0 kmh NW 1.6 mph2.6 kmh 29.71 in1006.1 mb 0.00 in0.0 mm 0.00 in0.0 mm 0.00 in0.0 mm
04:10 AM 32.4°F0.2°C 26.6°F-3.0°C 84% 0.7 mph NW1.1 kmh NW 1.3 mph2.1 kmh 29.71 in1006.1 mb 0.00 in0.0 mm 0.00 in0.0 mm 0.00 in0.0 mm
04:15 AM 32.5°F0.3°C 28.4°F-2.0°C 84% 0.5 mph WNW0.8 kmh WNW 1.3 mph2.1 kmh 29.71 in1006.1 mb 0.00 in0.0 mm 0.00 in0.0 mm 0.00 in0.0 mm
04:20 AM 32.4°F0.2°C 26.6°F-3.0°C 84% 0.7 mph NW1.1 kmh NW 1.3 mph2.1 kmh 29.71 in1006.1 mb 0.00 in0.0 mm 0.00 in0.0 mm 0.00 in0.0 mm
04:25 AM 32.4°F0.2°C 26.6°F-3.0°C 84% 1.3 mph NW2.1 kmh NW 2.0 mph3.2 kmh 29.68 in1005.1 mb 0.00 in0.0 mm 0.00 in0.0 mm 0.00 in0.0 mm
04:30 AM 32.4°F0.2°C 26.6°F-3.0°C 84% 1.3 mph WNW2.1 kmh WNW 2.5 mph4.0 kmh 29.68 in1005.1 mb 0.00 in0.0 mm 0.00 in0.0 mm 0.00 in0.0 mm
04:35 AM 32.7°F0.4°C 28.4°F-2.0°C 84% 1.1 mph WNW1.8 kmh WNW 2.5 mph4.0 kmh 29.68 in1005.1 mb 0.00 in0.0 mm 0.00 in0.0 mm 0.00 in0.0 mm
04:40 AM 32.9°F0.5°C 28.4°F-2.0°C 84% 0.8 mph W1.3 kmh W 2.0 mph3.2 kmh 29.68 in1005.1 mb 0.00 in0.0 mm 0.00 in0.0 mm 0.00 in0.0 mm
04:45 AM 32.7°F0.4°C 28.4°F-2.0°C 84% 0.6 mph WSW1.0 kmh WSW 1.3 mph2.1 kmh 29.68 in1005.1 mb 0.00 in0.0 mm 0.00 in0.0 mm 0.00 in0.0 mm
04:50 AM 32.5°F0.3°C 28.4°F-2.0°C 84% 0.8 mph WSW1.3 kmh WSW 1.3 mph2.1 kmh 29.68 in1005.1 mb 0.00 in0.0 mm 0.00 in0.0 mm 0.00 in0.0 mm
04:55 AM 32.5°F0.3°C 28.4°F-2.0°C 85% 0.9 mph WSW1.4 kmh WSW 1.3 mph2.1 kmh 29.71 in1006.1 mb 0.00 in0.0 mm 0.00 in0.0 mm 0.00 in0.0 mm
05:00 AM 32.9°F0.5°C 30.2°F-1.0°C 85% 0.9 mph WSW1.4 kmh WSW 1.6 mph2.6 kmh 29.71 in1006.1 mb 0.00 in0.0 mm 0.00 in0.0 mm 0.00 in0.0 mm
05:05 AM 33.1°F0.6°C 30.2°F-1.0°C 85% 1.4 mph WSW2.3 kmh WSW 2.9 mph4.7 kmh 29.71 in1006.1 mb 0.00 in0.0 mm 0.00 in0.0 mm 0.00 in0.0 mm
05:10 AM 32.7°F0.4°C 28.4°F-2.0°C 85% 1.2 mph WSW1.9 kmh WSW 2.9 mph4.7 kmh 29.71 in1006.1 mb 0.00 in0.0 mm 0.00 in0.0 mm 0.00 in0.0 mm
05:15 AM 32.4°F0.2°C 26.6°F-3.0°C 84% 0.9 mph W1.4 kmh W 2.9 mph4.7 kmh 29.71 in1006.1 mb 0.00 in0.0 mm 0.00 in0.0 mm 0.00 in0.0 mm
05:20 AM 32.7°F0.4°C 28.4°F-2.0°C 84% 1.4 mph WSW2.3 kmh WSW 2.0 mph3.2 kmh 29.71 in1006.1 mb 0.00 in0.0 mm 0.00 in0.0 mm 0.00 in0.0 mm
05:25 AM 32.9°F0.5°C 28.4°F-2.0°C 84% 1.8 mph WSW2.9 kmh WSW 2.9 mph4.7 kmh 29.68 in1005.1 mb 0.00 in0.0 mm 0.00 in0.0 mm 0.00 in0.0 mm
05:30 AM 33.1°F0.6°C 28.4°F-2.0°C 84% 2.1 mph WSW3.4 kmh WSW 2.9 mph4.7 kmh 29.68 in1005.1 mb 0.00 in0.0 mm 0.00 in0.0 mm 0.00 in0.0 mm
05:35 AM 32.9°F0.5°C 28.4°F-2.0°C 84% 1.7 mph SW2.7 kmh SW 2.9 mph4.7 kmh 29.68 in1005.1 mb 0.00 in0.0 mm 0.00 in0.0 mm 0.00 in0.0 mm
05:40 AM 32.7°F0.4°C 28.4°F-2.0°C 84% 0.8 mph SW1.3 kmh SW 2.5 mph4.0 kmh 29.71 in1006.1 mb 0.00 in0.0 mm 0.00 in0.0 mm 0.00 in0.0 mm
05:45 AM 32.5°F0.3°C 28.4°F-2.0°C 84% 0.4 mph SW0.6 kmh SW 1.3 mph2.1 kmh 29.71 in1006.1 mb 0.00 in0.0 mm 0.00 in0.0 mm 0.00 in0.0 mm
05:50 AM 32.5°F0.3°C 28.4°F-2.0°C 84% 0.7 mph SSW1.1 kmh SSW 2.0 mph3.2 kmh 29.71 in1006.1 mb 0.00 in0.0 mm 0.00 in0.0 mm 0.00 in0.0 mm
05:55 AM 32.4°F0.2°C 26.6°F-3.0°C 84% 0.6 mph SSW1.0 kmh SSW 2.0 mph3.2 kmh 29.71 in1006.1 mb 0.00 in0.0 mm 0.00 in0.0 mm 0.00 in0.0 mm
06:00 AM 32.4°F0.2°C 26.6°F-3.0°C 84% 0.1 mph SSW0.2 kmh SSW 0.9 mph1.4 kmh 29.71 in1006.1 mb 0.00 in0.0 mm 0.00 in0.0 mm 0.00 in0.0 mm
06:05 AM 32.4°F0.2°C 26.6°F-3.0°C 84% 0.1 mph SSW0.2 kmh SSW 1.1 mph1.8 kmh 29.71 in1006.1 mb 0.00 in0.0 mm 0.00 in0.0 mm 0.00 in0.0 mm
06:10 AM 32.4°F0.2°C 26.6°F-3.0°C 84% 0.1 mph SSW0.2 kmh SSW 1.1 mph1.8 kmh 29.71 in1006.1 mb 0.00 in0.0 mm 0.00 in0.0 mm 0.00 in0.0 mm
06:15 AM 32.4°F0.2°C 26.6°F-3.0°C 84% Calm Calm -- 29.71 in1006.1 mb 0.00 in0.0 mm 0.00 in0.0 mm 0.00 in0.0 mm
06:20 AM 32.2°F0.1°C 26.6°F-3.0°C 84% 0.1 mph ESE0.2 kmh ESE 0.9 mph1.4 kmh 29.71 in1006.1 mb 0.00 in0.0 mm 0.00 in0.0 mm 0.00 in0.0 mm
06:25 AM 32.2°F0.1°C 26.6°F-3.0°C 85% 0.2 mph E0.3 kmh E 0.9 mph1.4 kmh 29.71 in1006.1 mb 0.00 in0.0 mm 0.00 in0.0 mm 0.00 in0.0 mm
06:30 AM 31.8°F-0.1°C 26.6°F-3.0°C 84% 0.4 mph E0.6 kmh E 1.3 mph2.1 kmh 29.71 in1006.1 mb 0.00 in0.0 mm 0.00 in0.0 mm 0.00 in0.0 mm
06:35 AM 31.6°F-0.2°C 26.6°F-3.0°C 84% 0.5 mph E0.8 kmh E 1.3 mph2.1 kmh 29.71 in1006.1 mb 0.00 in0.0 mm 0.00 in0.0 mm 0.00 in0.0 mm
06:40 AM 31.6°F-0.2°C 26.6°F-3.0°C 84% 0.3 mph E0.5 kmh E 1.1 mph1.8 kmh 29.71 in1006.1 mb 0.00 in0.0 mm 0.00 in0.0 mm 0.00 in0.0 mm
06:45 AM 31.5°F-0.3°C 24.8°F-4.0°C 84% Calm Calm -- 29.71 in1006.1 mb 0.00 in0.0 mm 0.00 in0.0 mm 0.00 in0.0 mm
06:50 AM 31.5°F-0.3°C 24.8°F-4.0°C 84% 0.2 mph NE0.3 kmh NE 0.9 mph1.4 kmh 29.71 in1006.1 mb 0.00 in0.0 mm 0.00 in0.0 mm 0.00 in0.0 mm
06:55 AM 31.3°F-0.4°C 24.8°F-4.0°C 84% 0.4 mph ENE0.6 kmh ENE 1.3 mph2.1 kmh 29.71 in1006.1 mb 0.00 in0.0 mm 0.00 in0.0 mm 0.00 in0.0 mm
07:00 AM 31.6°F-0.2°C 26.6°F-3.0°C 85% 0.6 mph ESE1.0 kmh ESE 2.5 mph4.0 kmh 29.71 in1006.1 mb 0.00 in0.0 mm 0.00 in0.0 mm 0.00 in0.0 mm
07:05 AM 31.8°F-0.1°C 26.6°F-3.0°C 85% 0.5 mph ESE0.8 kmh ESE 2.5 mph4.0 kmh 29.71 in1006.1 mb 0.00 in0.0 mm 0.00 in0.0 mm 0.00 in0.0 mm
07:10 AM 31.5°F-0.3°C 26.6°F-3.0°C 85% 0.2 mph ESE0.3 kmh ESE 1.1 mph1.8 kmh 29.71 in1006.1 mb 0.00 in0.0 mm 0.00 in0.0 mm 0.00 in0.0 mm
07:15 AM 31.3°F-0.4°C 26.6°F-3.0°C 85% Calm Calm -- 29.71 in1006.1 mb 0.00 in0.0 mm 0.00 in0.0 mm 0.00 in0.0 mm
07:20 AM 30.7°F-0.7°C 24.8°F-4.0°C 84% Calm Calm -- 29.71 in1006.1 mb 0.00 in0.0 mm 0.00 in0.0 mm 0.00 in0.0 mm
07:25 AM 30.7°F-0.7°C 24.8°F-4.0°C 84% Calm Calm -- 29.71 in1006.1 mb 0.00 in0.0 mm 0.00 in0.0 mm 0.00 in0.0 mm
07:30 AM 30.6°F-0.8°C 24.8°F-4.0°C 84% Calm Calm -- 29.71 in1006.1 mb 0.00 in0.0 mm 0.00 in0.0 mm 0.00 in0.0 mm
07:35 AM 30.6°F-0.8°C 24.8°F-4.0°C 84% Calm Calm -- 29.71 in1006.1 mb 0.00 in0.0 mm 0.00 in0.0 mm 0.00 in0.0 mm
07:40 AM 30.6°F-0.8°C 24.8°F-4.0°C 84% Calm Calm -- 29.71 in1006.1 mb 0.00 in0.0 mm 0.00 in0.0 mm 0.00 in0.0 mm
07:45 AM 30.7°F-0.7°C 24.8°F-4.0°C 84% Calm Calm -- 29.71 in1006.1 mb 0.00 in0.0 mm 0.00 in0.0 mm 0.00 in0.0 mm
07:50 AM 31.1°F-0.5°C 26.6°F-3.0°C 85% Calm Calm -- 29.71 in1006.1 mb 0.00 in0.0 mm 0.00 in0.0 mm 0.00 in0.0 mm
07:55 AM 31.3°F-0.4°C 26.6°F-3.0°C 85% Calm Calm -- 29.71 in1006.1 mb 0.00 in0.0 mm 0.00 in0.0 mm 0.00 in0.0 mm
08:00 AM 32.0°F0.0°C 26.6°F-3.0°C 85% 0.3 mph SE0.5 kmh SE 1.3 mph2.1 kmh 29.71 in1006.1 mb 0.00 in0.0 mm 0.00 in0.0 mm 0.00 in0.0 mm
08:05 AM 32.2°F0.1°C 26.6°F-3.0°C 85% 0.5 mph SE0.8 kmh SE 2.2 mph3.5 kmh 29.71 in1006.1 mb 0.00 in0.0 mm 0.00 in0.0 mm 0.00 in0.0 mm
08:10 AM 31.8°F-0.1°C 26.6°F-3.0°C 85% 0.3 mph SE0.5 kmh SE 2.2 mph3.5 kmh 29.71 in1006.1 mb 0.00 in0.0 mm 0.00 in0.0 mm 0.00 in0.0 mm
08:15 AM 31.8°F-0.1°C 26.6°F-3.0°C 85% 0.1 mph ESE0.2 kmh ESE 1.1 mph1.8 kmh 29.71 in1006.1 mb 0.00 in0.0 mm 0.00 in0.0 mm 0.00 in0.0 mm
08:20 AM 31.6°F-0.2°C 26.6°F-3.0°C 85% 0.2 mph ESE0.3 kmh ESE 0.9 mph1.4 kmh 29.71 in1006.1 mb 0.00 in0.0 mm 0.00 in0.0 mm 0.00 in0.0 mm
08:25 AM 31.5°F-0.3°C 26.6°F-3.0°C 85% 0.3 mph ESE0.5 kmh ESE 0.9 mph1.4 kmh 29.71 in1006.1 mb 0.00 in0.0 mm 0.00 in0.0 mm 0.00 in0.0 mm
08:30 AM 31.5°F-0.3°C 26.6°F-3.0°C 85% Calm Calm -- 29.71 in1006.1 mb 0.00 in0.0 mm 0.00 in0.0 mm 0.00 in0.0 mm
08:35 AM 31.5°F-0.3°C 26.6°F-3.0°C 85% Calm Calm -- 29.71 in1006.1 mb 0.00 in0.0 mm 0.00 in0.0 mm 0.00 in0.0 mm
08:40 AM 31.5°F-0.3°C 26.6°F-3.0°C 85% Calm Calm -- 29.71 in1006.1 mb 0.00 in0.0 mm 0.00 in0.0 mm 0.00 in0.0 mm
08:45 AM 31.6°F-0.2°C 26.6°F-3.0°C 85% Calm Calm -- 29.71 in1006.1 mb 0.00 in0.0 mm 0.00 in0.0 mm 0.00 in0.0 mm
08:50 AM 31.6°F-0.2°C 26.6°F-3.0°C 85% 0.5 mph SW0.8 kmh SW 2.5 mph4.0 kmh 29.71 in1006.1 mb 0.00 in0.0 mm 0.00 in0.0 mm 0.00 in0.0 mm
08:55 AM 31.8°F-0.1°C 26.6°F-3.0°C 85% 0.7 mph SW1.1 kmh SW 2.5 mph4.0 kmh 29.71 in1006.1 mb 0.00 in0.0 mm 0.00 in0.0 mm 0.00 in0.0 mm
09:00 AM 32.4°F0.2°C 26.6°F-3.0°C 85% 0.8 mph WSW1.3 kmh WSW 1.6 mph2.6 kmh 29.71 in1006.1 mb 0.00 in0.0 mm 0.00 in0.0 mm 0.00 in0.0 mm
09:05 AM 32.5°F0.3°C 28.4°F-2.0°C 85% 0.9 mph SW1.4 kmh SW 2.0 mph3.2 kmh 29.71 in1006.1 mb 0.00 in0.0 mm 0.00 in0.0 mm 0.00 in0.0 mm
09:10 AM 32.7°F0.4°C 28.4°F-2.0°C 85% 0.7 mph SSW1.1 kmh SSW 2.0 mph3.2 kmh 29.71 in1006.1 mb 0.00 in0.0 mm 0.00 in0.0 mm 0.00 in0.0 mm
09:15 AM 32.9°F0.5°C 30.2°F-1.0°C 86% 0.6 mph S1.0 kmh S 2.2 mph3.5 kmh 29.71 in1006.1 mb 0.00 in0.0 mm 0.00 in0.0 mm 0.00 in0.0 mm
09:20 AM 33.3°F0.7°C 30.2°F-1.0°C 86% 0.4 mph S0.6 kmh S 2.2 mph3.5 kmh 29.71 in1006.1 mb 0.00 in0.0 mm 0.00 in0.0 mm 0.00 in0.0 mm
09:25 AM 33.6°F0.9°C 30.2°F-1.0°C 86% 0.4 mph S0.6 kmh S 1.1 mph1.8 kmh 29.68 in1005.1 mb 0.00 in0.0 mm 0.00 in0.0 mm 0.00 in0.0 mm
09:30 AM 33.6°F0.9°C 30.2°F-1.0°C 86% 0.2 mph S0.3 kmh S 1.1 mph1.8 kmh 29.68 in1005.1 mb 0.00 in0.0 mm 0.00 in0.0 mm 0.00 in0.0 mm
09:35 AM 33.6°F0.9°C 30.2°F-1.0°C 86% 0.1 mph SE0.2 kmh SE 1.1 mph1.8 kmh 29.68 in1005.1 mb 0.00 in0.0 mm 0.00 in0.0 mm 0.00 in0.0 mm
09:40 AM 33.8°F1.0°C 30.2°F-1.0°C 86% 0.5 mph S0.8 kmh S 2.2 mph3.5 kmh 29.65 in1004.1 mb 0.00 in0.0 mm 0.00 in0.0 mm 0.00 in0.0 mm
09:45 AM 34.0°F1.1°C 30.2°F-1.0°C 86% 0.6 mph S1.0 kmh S 2.2 mph3.5 kmh 29.65 in1004.1 mb 0.00 in0.0 mm 0.00 in0.0 mm 0.00 in0.0 mm
09:50 AM 34.5°F1.4°C 30.2°F-1.0°C 86% 0.4 mph S0.6 kmh S 1.3 mph2.1 kmh 29.65 in1004.1 mb 0.00 in0.0 mm 0.00 in0.0 mm 0.00 in0.0 mm
09:55 AM 34.7°F1.5°C 30.2°F-1.0°C 86% 0.3 mph S0.5 kmh S 1.3 mph2.1 kmh 29.65 in1004.1 mb 0.00 in0.0 mm 0.00 in0.0 mm 0.00 in0.0 mm
10:00 AM 34.7°F1.5°C 30.2°F-1.0°C 86% 0.1 mph E0.2 kmh E 1.3 mph2.1 kmh 29.65 in1004.1 mb 0.00 in0.0 mm 0.00 in0.0 mm 0.00 in0.0 mm
10:05 AM 34.7°F1.5°C 30.2°F-1.0°C 86% 0.1 mph E0.2 kmh E 1.3 mph2.1 kmh 29.65 in1004.1 mb 0.00 in0.0 mm 0.00 in0.0 mm 0.00 in0.0 mm
10:10 AM 34.9°F1.6°C 30.2°F-1.0°C 86% 0.1 mph SE0.2 kmh SE 0.9 mph1.4 kmh 29.65 in1004.1 mb 0.00 in0.0 mm 0.00 in0.0 mm 0.00 in0.0 mm
10:15 AM 35.1°F1.7°C 32.0°F0.0°C 86% 0.2 mph SE0.3 kmh SE 0.9 mph1.4 kmh 29.65 in1004.1 mb 0.00 in0.0 mm 0.00 in0.0 mm 0.00 in0.0 mm
10:20 AM 35.1°F1.7°C 32.0°F0.0°C 86% Calm Calm 0.9 mph1.4 kmh 29.65 in1004.1 mb 0.00 in0.0 mm 0.00 in0.0 mm 0.00 in0.0 mm
10:25 AM 35.4°F1.9°C 32.0°F0.0°C 86% 0.2 mph SSE0.3 kmh SSE 1.6 mph2.6 kmh 29.65 in1004.1 mb 0.00 in0.0 mm 0.00 in0.0 mm 0.00 in0.0 mm
10:30 AM 35.6°F2.0°C 32.0°F0.0°C 86% 0.5 mph S0.8 kmh S 1.6 mph2.6 kmh 29.65 in1004.1 mb 0.00 in0.0 mm 0.00 in0.0 mm 0.00 in0.0 mm
10:35 AM 35.6°F2.0°C 32.0°F0.0°C 85% 0.6 mph S1.0 kmh S 1.6 mph2.6 kmh 29.65 in1004.1 mb 0.00 in0.0 mm 0.00 in0.0 mm 0.00 in0.0 mm
10:40 AM 35.8°F2.1°C 32.0°F0.0°C 85% 0.7 mph SSE1.1 kmh SSE 1.6 mph2.6 kmh 29.65 in1004.1 mb 0.00 in0.0 mm 0.00 in0.0 mm 0.00 in0.0 mm
10:45 AM 35.6°F2.0°C 32.0°F0.0°C 85% 0.7 mph S1.1 kmh S 1.6 mph2.6 kmh 29.65 in1004.1 mb 0.00 in0.0 mm 0.00 in0.0 mm 0.00 in0.0 mm
10:50 AM 35.8°F2.1°C 32.0°F0.0°C 85% 0.5 mph S0.8 kmh S 1.3 mph2.1 kmh 29.65 in1004.1 mb 0.00 in0.0 mm 0.00 in0.0 mm 0.00 in0.0 mm
10:55 AM 36.0°F2.2°C 32.0°F0.0°C 85% 1.0 mph S1.6 kmh S 3.8 mph6.1 kmh 29.65 in1004.1 mb 0.00 in0.0 mm 0.00 in0.0 mm 0.00 in0.0 mm
11:00 AM 36.1°F2.3°C 32.0°F0.0°C 85% 2.2 mph SSW3.5 kmh SSW 4.0 mph6.4 kmh 29.65 in1004.1 mb 0.00 in0.0 mm 0.00 in0.0 mm 0.00 in0.0 mm
11:05 AM 36.3°F2.4°C 32.0°F0.0°C 84% 2.8 mph S4.5 kmh S 4.0 mph6.4 kmh 29.65 in1004.1 mb 0.00 in0.0 mm 0.00 in0.0 mm 0.00 in0.0 mm
11:10 AM 36.5°F2.5°C 32.0°F0.0°C 84% 4.0 mph S6.4 kmh S 6.5 mph10.5 kmh 29.62 in1003.0 mb 0.00 in0.0 mm 0.00 in0.0 mm 0.00 in0.0 mm
11:15 AM 36.5°F2.5°C 32.0°F0.0°C 84% 4.5 mph S7.2 kmh S 6.5 mph10.5 kmh 29.62 in1003.0 mb 0.00 in0.0 mm 0.00 in0.0 mm 0.00 in0.0 mm
11:20 AM 36.5°F2.5°C 32.0°F0.0°C 84% 3.3 mph S5.3 kmh S 5.6 mph9.0 kmh 29.62 in1003.0 mb 0.00 in0.0 mm 0.00 in0.0 mm 0.00 in0.0 mm
11:25 AM 36.7°F2.6°C 32.0°F0.0°C 84% 2.7 mph S4.3 kmh S 5.6 mph9.0 kmh 29.62 in1003.0 mb 0.00 in0.0 mm 0.00 in0.0 mm 0.00 in0.0 mm
11:30 AM 36.9°F2.7°C 33.8°F1.0°C 84% 3.4 mph S5.5 kmh S 5.4 mph8.7 kmh 29.62 in1003.0 mb 0.00 in0.0 mm 0.00 in0.0 mm 0.00 in0.0 mm
11:35 AM 37.0°F2.8°C 32.0°F0.0°C 83% 4.3 mph SSE6.9 kmh SSE 6.3 mph10.1 kmh 29.62 in1003.0 mb 0.00 in0.0 mm 0.00 in0.0 mm 0.00 in0.0 mm
11:40 AM 37.2°F2.9°C 32.0°F0.0°C 83% 4.3 mph S6.9 kmh S 6.3 mph10.1 kmh 29.59 in1002.0 mb 0.00 in0.0 mm 0.00 in0.0 mm 0.00 in0.0 mm
11:45 AM 37.4°F3.0°C 33.8°F1.0°C 83% 3.8 mph S6.1 kmh S 6.0 mph9.7 kmh 29.59 in1002.0 mb 0.00 in0.0 mm 0.00 in0.0 mm 0.00 in0.0 mm
11:50 AM 37.4°F3.0°C 33.8°F1.0°C 83% 3.7 mph S6.0 kmh S 6.0 mph9.7 kmh 29.59 in1002.0 mb 0.00 in0.0 mm 0.00 in0.0 mm 0.00 in0.0 mm
11:55 AM 37.6°F3.1°C 33.8°F1.0°C 83% 3.4 mph S5.5 kmh S 6.0 mph9.7 kmh 29.59 in1002.0 mb 0.00 in0.0 mm 0.00 in0.0 mm 0.00 in0.0 mm
12:00 PM 37.8°F3.2°C 33.8°F1.0°C 83% 2.8 mph S4.5 kmh S 5.6 mph9.0 kmh 29.59 in1002.0 mb 0.00 in0.0 mm 0.00 in0.0 mm 0.00 in0.0 mm
12:05 PM 37.8°F3.2°C 33.8°F1.0°C 83% 3.4 mph S5.5 kmh S 5.8 mph9.3 kmh 29.59 in1002.0 mb 0.00 in0.0 mm 0.00 in0.0 mm 0.00 in0.0 mm
12:10 PM 37.9°F3.3°C 33.8°F1.0°C 83% 3.7 mph S6.0 kmh S 5.8 mph9.3 kmh 29.56 in1001.0 mb 0.00 in0.0 mm 0.00 in0.0 mm 0.00 in0.0 mm
12:15 PM 38.1°F3.4°C 33.8°F1.0°C 83% 3.9 mph S6.3 kmh S 8.7 mph14.0 kmh 29.56 in1001.0 mb 0.00 in0.0 mm 0.00 in0.0 mm 0.00 in0.0 mm
12:20 PM 38.1°F3.4°C 33.8°F1.0°C 83% 5.1 mph S8.2 kmh S 8.7 mph14.0 kmh 29.56 in1001.0 mb 0.00 in0.0 mm 0.00 in0.0 mm 0.00 in0.0 mm
12:25 PM 38.1°F3.4°C 33.8°F1.0°C 83% 5.2 mph S8.4 kmh S 7.6 mph12.2 kmh 29.56 in1001.0 mb 0.00 in0.0 mm 0.00 in0.0 mm 0.00 in0.0 mm
12:30 PM 38.1°F3.4°C 33.8°F1.0°C 83% 4.5 mph SSE7.2 kmh SSE 6.5 mph10.5 kmh 29.56 in1001.0 mb 0.04 in1.0 mm 0.48 in12.2 mm 0.04 in1.0 mm
12:35 PM 38.1°F3.4°C 33.8°F1.0°C 83% 4.0 mph SSE6.4 kmh SSE 5.8 mph9.3 kmh 29.56 in1001.0 mb 0.04 in1.0 mm 0.00 in0.0 mm 0.04 in1.0 mm
12:40 PM 38.1°F3.4°C 33.8°F1.0°C 83% 3.4 mph SSE5.5 kmh SSE 5.8 mph9.3 kmh 29.53 in1000.0 mb 0.04 in1.0 mm 0.00 in0.0 mm 0.04 in1.0 mm
12:45 PM 38.1°F3.4°C 33.8°F1.0°C 84% 2.4 mph S3.9 kmh S 5.8 mph9.3 kmh 29.53 in1000.0 mb 0.04 in1.0 mm 0.00 in0.0 mm 0.04 in1.0 mm
12:50 PM 38.1°F3.4°C 33.8°F1.0°C 84% 1.6 mph S2.6 kmh S 3.1 mph5.0 kmh 29.53 in1000.0 mb 0.04 in1.0 mm 0.00 in0.0 mm 0.04 in1.0 mm
12:55 PM 38.1°F3.4°C 33.8°F1.0°C 84% 2.1 mph S3.4 kmh S 3.8 mph6.1 kmh 29.53 in1000.0 mb 0.04 in1.0 mm 0.00 in0.0 mm 0.04 in1.0 mm
01:00 PM 38.1°F3.4°C 33.8°F1.0°C 84% 2.5 mph S4.0 kmh S 3.8 mph6.1 kmh 29.53 in1000.0 mb 0.04 in1.0 mm 0.00 in0.0 mm 0.04 in1.0 mm
01:05 PM 38.3°F3.5°C 33.8°F1.0°C 84% 1.7 mph SSE2.7 kmh SSE 3.8 mph6.1 kmh 29.53 in1000.0 mb 0.04 in1.0 mm 0.00 in0.0 mm 0.04 in1.0 mm
01:10 PM 38.3°F3.5°C 33.8°F1.0°C 85% 1.4 mph ESE2.3 kmh ESE 4.9 mph7.9 kmh 29.53 in1000.0 mb 0.11 in2.8 mm 0.84 in21.3 mm 0.11 in2.8 mm
01:15 PM 38.3°F3.5°C 33.8°F1.0°C 85% 1.2 mph ESE1.9 kmh ESE 4.9 mph7.9 kmh 29.53 in1000.0 mb 0.11 in2.8 mm 0.00 in0.0 mm 0.11 in2.8 mm
01:20 PM 38.3°F3.5°C 33.8°F1.0°C 85% 0.9 mph SSE1.4 kmh SSE 2.5 mph4.0 kmh 29.53 in1000.0 mb 0.11 in2.8 mm 0.00 in0.0 mm 0.11 in2.8 mm
01:25 PM 38.3°F3.5°C 33.8°F1.0°C 85% 1.1 mph SE1.8 kmh SE 2.5 mph4.0 kmh 29.50 in999.0 mb 0.11 in2.8 mm 0.00 in0.0 mm 0.11 in2.8 mm
01:30 PM 38.3°F3.5°C 33.8°F1.0°C 85% 1.1 mph SE1.8 kmh SE 2.5 mph4.0 kmh 29.50 in999.0 mb 0.07 in1.8 mm 0.00 in0.0 mm 0.11 in2.8 mm
01:40 PM 38.5°F3.6°C 33.8°F1.0°C 86% 0.9 mph SE1.4 kmh SE 2.5 mph4.0 kmh 29.47 in998.0 mb 0.07 in1.8 mm 0.00 in0.0 mm 0.11 in2.8 mm
01:45 PM 38.5°F3.6°C 33.8°F1.0°C 86% 0.9 mph S1.4 kmh S 2.0 mph3.2 kmh 29.47 in998.0 mb 0.07 in1.8 mm 0.00 in0.0 mm 0.11 in2.8 mm
01:50 PM 38.5°F3.6°C 33.8°F1.0°C 86% 1.1 mph SSW1.8 kmh SSW 3.1 mph5.0 kmh 29.47 in998.0 mb 0.07 in1.8 mm 0.00 in0.0 mm 0.11 in2.8 mm
01:55 PM 38.7°F3.7°C 35.6°F2.0°C 86% 1.4 mph SSW2.3 kmh SSW 4.3 mph6.9 kmh 29.47 in998.0 mb 0.07 in1.8 mm 0.00 in0.0 mm 0.11 in2.8 mm
02:00 PM 38.8°F3.8°C 35.6°F2.0°C 86% 1.1 mph S1.8 kmh S 4.3 mph6.9 kmh 29.47 in998.0 mb 0.07 in1.8 mm 0.00 in0.0 mm 0.11 in2.8 mm
02:05 PM 39.2°F4.0°C 35.6°F2.0°C 86% 1.9 mph SSE3.1 kmh SSE 6.5 mph10.5 kmh 29.47 in998.0 mb 0.07 in1.8 mm 0.00 in0.0 mm 0.11 in2.8 mm
02:10 PM 39.6°F4.2°C 35.6°F2.0°C 87% 2.3 mph SE3.7 kmh SE 6.5 mph10.5 kmh 29.45 in997.3 mb 0.00 in0.0 mm 0.00 in0.0 mm 0.11 in2.8 mm
02:15 PM 39.7°F4.3°C 35.6°F2.0°C 87% 3.1 mph S5.0 kmh S 10.1 mph16.3 kmh 29.45 in997.3 mb 0.00 in0.0 mm 0.00 in0.0 mm 0.11 in2.8 mm
02:20 PM 39.9°F4.4°C 35.6°F2.0°C 86% 5.2 mph SSW8.4 kmh SSW 12.1 mph19.5 kmh 29.45 in997.3 mb 0.00 in0.0 mm 0.00 in0.0 mm 0.11 in2.8 mm
02:25 PM 40.1°F4.5°C 35.6°F2.0°C 86% 5.4 mph SSW8.7 kmh SSW 12.1 mph19.5 kmh 29.45 in997.3 mb 0.00 in0.0 mm 0.00 in0.0 mm 0.11 in2.8 mm
02:30 PM 40.3°F4.6°C 35.6°F2.0°C 86% 5.2 mph S8.4 kmh S 9.4 mph15.1 kmh 29.45 in997.3 mb 0.00 in0.0 mm 0.00 in0.0 mm 0.11 in2.8 mm
02:35 PM 40.5°F4.7°C 37.4°F3.0°C 86% 5.2 mph S8.4 kmh S 9.4 mph15.1 kmh 29.45 in997.3 mb 0.00 in0.0 mm 0.00 in0.0 mm 0.11 in2.8 mm
02:40 PM 40.5°F4.7°C 37.4°F3.0°C 86% 4.0 mph S6.4 kmh S 6.5 mph10.5 kmh 29.45 in997.3 mb 0.00 in0.0 mm 0.00 in0.0 mm 0.11 in2.8 mm
02:45 PM 40.3°F4.6°C 37.4°F3.0°C 87% 4.4 mph SSW7.1 kmh SSW 7.8 mph12.6 kmh 29.45 in997.3 mb 0.00 in0.0 mm 0.00 in0.0 mm 0.11 in2.8 mm
02:50 PM 40.5°F4.7°C 37.4°F3.0°C 87% 4.5 mph SSW7.2 kmh SSW 7.8 mph12.6 kmh 29.45 in997.3 mb 0.00 in0.0 mm 0.00 in0.0 mm 0.11 in2.8 mm
02:55 PM 40.5°F4.7°C 37.4°F3.0°C 87% 4.6 mph SSW7.4 kmh SSW 12.5 mph20.1 kmh 29.41 in995.9 mb 0.00 in0.0 mm 0.00 in0.0 mm 0.11 in2.8 mm
03:00 PM 40.5°F4.7°C 37.4°F3.0°C 87% 5.5 mph SSW8.9 kmh SSW 12.5 mph20.1 kmh 29.41 in995.9 mb 0.00 in0.0 mm 0.00 in0.0 mm 0.11 in2.8 mm
03:05 PM 40.5°F4.7°C 37.4°F3.0°C 87% 4.8 mph SSW7.7 kmh SSW 7.8 mph12.6 kmh 29.41 in995.9 mb 0.00 in0.0 mm 0.00 in0.0 mm 0.11 in2.8 mm
03:10 PM 40.8°F4.9°C 37.4°F3.0°C 87% 4.9 mph S7.9 kmh S 7.4 mph11.9 kmh 29.41 in995.9 mb 0.00 in0.0 mm 0.00 in0.0 mm 0.11 in2.8 mm
03:15 PM 40.8°F4.9°C 37.4°F3.0°C 87% 4.6 mph SSW7.4 kmh SSW 7.4 mph11.9 kmh 29.41 in995.9 mb 0.00 in0.0 mm 0.00 in0.0 mm 0.11 in2.8 mm
03:20 PM 40.8°F4.9°C 37.4°F3.0°C 87% 4.1 mph SSW6.6 kmh SSW 7.4 mph11.9 kmh 29.41 in995.9 mb 0.00 in0.0 mm 0.00 in0.0 mm 0.11 in2.8 mm
03:25 PM 40.8°F4.9°C 37.4°F3.0°C 87% 3.3 mph SSW5.3 kmh SSW 6.9 mph11.1 kmh 29.41 in995.9 mb 0.00 in0.0 mm 0.00 in0.0 mm 0.11 in2.8 mm
03:30 PM 40.8°F4.9°C 37.4°F3.0°C 87% 3.1 mph SW5.0 kmh SW 6.9 mph11.1 kmh 29.41 in995.9 mb 0.00 in0.0 mm 0.00 in0.0 mm 0.11 in2.8 mm
03:35 PM 41.0°F5.0°C 37.4°F3.0°C 87% 3.1 mph SW5.0 kmh SW 6.9 mph11.1 kmh 29.41 in995.9 mb 0.00 in0.0 mm 0.00 in0.0 mm 0.11 in2.8 mm
03:40 PM 41.0°F5.0°C 37.4°F3.0°C 88% 2.1 mph S3.4 kmh S 4.3 mph6.9 kmh 29.41 in995.9 mb 0.00 in0.0 mm 0.00 in0.0 mm 0.11 in2.8 mm
03:45 PM 41.0°F5.0°C 37.4°F3.0°C 88% 2.1 mph SSW3.4 kmh SSW 4.3 mph6.9 kmh 29.41 in995.9 mb 0.00 in0.0 mm 0.00 in0.0 mm 0.11 in2.8 mm
03:50 PM 41.0°F5.0°C 37.4°F3.0°C 88% 2.3 mph SW3.7 kmh SW 6.9 mph11.1 kmh 29.41 in995.9 mb 0.00 in0.0 mm 0.00 in0.0 mm 0.11 in2.8 mm
03:55 PM 41.0°F5.0°C 37.4°F3.0°C 88% 2.2 mph WSW3.5 kmh WSW 6.9 mph11.1 kmh 29.41 in995.9 mb 0.00 in0.0 mm 0.00 in0.0 mm 0.11 in2.8 mm
04:00 PM 41.0°F5.0°C 37.4°F3.0°C 88% 2.4 mph SW3.9 kmh SW 6.9 mph11.1 kmh 29.41 in995.9 mb 0.00 in0.0 mm 0.00 in0.0 mm 0.11 in2.8 mm
04:05 PM 41.0°F5.0°C 37.4°F3.0°C 88% 2.1 mph SW3.4 kmh SW 4.0 mph6.4 kmh 29.41 in995.9 mb 0.00 in0.0 mm 0.00 in0.0 mm 0.11 in2.8 mm
04:10 PM 41.2°F5.1°C 37.4°F3.0°C 88% 2.4 mph SSW3.9 kmh SSW 5.6 mph9.0 kmh 29.41 in995.9 mb 0.00 in0.0 mm 0.00 in0.0 mm 0.11 in2.8 mm
04:15 PM 41.2°F5.1°C 37.4°F3.0°C 88% 1.8 mph S2.9 kmh S 5.6 mph9.0 kmh 29.41 in995.9 mb 0.00 in0.0 mm 0.00 in0.0 mm 0.11 in2.8 mm
04:20 PM 41.2°F5.1°C 37.4°F3.0°C 88% 0.9 mph S1.4 kmh S 2.5 mph4.0 kmh 29.41 in995.9 mb 0.00 in0.0 mm 0.00 in0.0 mm 0.11 in2.8 mm
04:25 PM 41.4°F5.2°C 37.4°F3.0°C 88% 0.6 mph S1.0 kmh S 2.0 mph3.2 kmh 29.39 in995.3 mb 0.00 in0.0 mm 0.00 in0.0 mm 0.11 in2.8 mm
04:30 PM 41.4°F5.2°C 37.4°F3.0°C 88% 0.4 mph SSE0.6 kmh SSE 1.3 mph2.1 kmh 29.39 in995.3 mb 0.00 in0.0 mm 0.00 in0.0 mm 0.11 in2.8 mm
04:35 PM 41.2°F5.1°C 37.4°F3.0°C 88% 0.2 mph SE0.3 kmh SE 1.3 mph2.1 kmh 29.39 in995.3 mb 0.00 in0.0 mm 0.00 in0.0 mm 0.11 in2.8 mm
04:40 PM 41.2°F5.1°C 37.4°F3.0°C 88% Calm Calm -- 29.39 in995.3 mb 0.00 in0.0 mm 0.00 in0.0 mm 0.11 in2.8 mm
04:45 PM 41.0°F5.0°C 37.4°F3.0°C 88% Calm Calm -- 29.39 in995.3 mb 0.00 in0.0 mm 0.00 in0.0 mm 0.11 in2.8 mm
04:50 PM 41.0°F5.0°C 37.4°F3.0°C 88% 0.3 mph S0.5 kmh S 1.6 mph2.6 kmh 29.39 in995.3 mb 0.00 in0.0 mm 0.00 in0.0 mm 0.11 in2.8 mm
04:55 PM 41.0°F5.0°C 37.4°F3.0°C 88% 1.2 mph S1.9 kmh S 4.0 mph6.4 kmh 29.36 in994.2 mb 0.00 in0.0 mm 0.00 in0.0 mm 0.11 in2.8 mm
05:00 PM 40.6°F4.8°C 37.4°F3.0°C 88% 0.9 mph S1.4 kmh S 4.0 mph6.4 kmh 29.36 in994.2 mb 0.00 in0.0 mm 0.00 in0.0 mm 0.11 in2.8 mm
05:05 PM 40.8°F4.9°C 37.4°F3.0°C 88% Calm Calm -- 29.36 in994.2 mb 0.00 in0.0 mm 0.00 in0.0 mm 0.11 in2.8 mm
05:10 PM 40.5°F4.7°C 37.4°F3.0°C 88% Calm Calm -- 29.36 in994.2 mb 0.00 in0.0 mm 0.00 in0.0 mm 0.11 in2.8 mm
05:15 PM 40.5°F4.7°C 37.4°F3.0°C 88% Calm Calm -- 29.36 in994.2 mb 0.00 in0.0 mm 0.00 in0.0 mm 0.11 in2.8 mm
05:20 PM 40.5°F4.7°C 37.4°F3.0°C 88% 0.2 mph S0.3 kmh S 2.7 mph4.3 kmh 29.36 in994.2 mb 0.00 in0.0 mm 0.00 in0.0 mm 0.11 in2.8 mm
05:25 PM 41.0°F5.0°C 37.4°F3.0°C 88% 1.0 mph S1.6 kmh S 2.7 mph4.3 kmh 29.36 in994.2 mb 0.00 in0.0 mm 0.00 in0.0 mm 0.11 in2.8 mm
05:30 PM 41.2°F5.1°C 37.4°F3.0°C 88% 1.6 mph S2.6 kmh S 3.8 mph6.1 kmh 29.36 in994.2 mb 0.00 in0.0 mm 0.00 in0.0 mm 0.11 in2.8 mm
05:35 PM 41.4°F5.2°C 37.4°F3.0°C 88% 1.7 mph S2.7 kmh S 3.8 mph6.1 kmh 29.36 in994.2 mb 0.00 in0.0 mm 0.00 in0.0 mm 0.11 in2.8 mm
05:40 PM 41.4°F5.2°C 37.4°F3.0°C 88% 2.7 mph SSW4.3 kmh SSW 4.3 mph6.9 kmh 29.33 in993.2 mb 0.00 in0.0 mm 0.00 in0.0 mm 0.11 in2.8 mm
05:45 PM 41.4°F5.2°C 37.4°F3.0°C 88% 3.2 mph SSW5.1 kmh SSW 4.3 mph6.9 kmh 29.33 in993.2 mb 0.00 in0.0 mm 0.00 in0.0 mm 0.11 in2.8 mm
05:50 PM 41.5°F5.3°C 37.4°F3.0°C 88% 3.0 mph SSW4.8 kmh SSW 4.0 mph6.4 kmh 29.33 in993.2 mb 0.00 in0.0 mm 0.00 in0.0 mm 0.11 in2.8 mm
05:55 PM 41.7°F5.4°C 37.4°F3.0°C 88% 3.0 mph S4.8 kmh S 4.0 mph6.4 kmh 29.33 in993.2 mb 0.00 in0.0 mm 0.00 in0.0 mm 0.11 in2.8 mm
06:00 PM 41.7°F5.4°C 37.4°F3.0°C 88% 2.2 mph S3.5 kmh S 3.6 mph5.8 kmh 29.33 in993.2 mb 0.00 in0.0 mm 0.00 in0.0 mm 0.11 in2.8 mm
06:05 PM 41.9°F5.5°C 39.2°F4.0°C 88% 1.5 mph SE2.4 kmh SE 4.0 mph6.4 kmh 29.33 in993.2 mb 0.00 in0.0 mm 0.00 in0.0 mm 0.11 in2.8 mm
06:10 PM 41.9°F5.5°C 39.2°F4.0°C 88% 0.9 mph E1.4 kmh E 4.0 mph6.4 kmh 29.33 in993.2 mb 0.00 in0.0 mm 0.00 in0.0 mm 0.11 in2.8 mm
06:15 PM 41.9°F5.5°C 39.2°F4.0°C 88% 0.4 mph SE0.6 kmh SE 2.0 mph3.2 kmh 29.33 in993.2 mb 0.00 in0.0 mm 0.00 in0.0 mm 0.11 in2.8 mm
06:20 PM 41.9°F5.5°C 39.2°F4.0°C 88% 0.3 mph ESE0.5 kmh ESE 1.3 mph2.1 kmh 29.33 in993.2 mb 0.00 in0.0 mm 0.00 in0.0 mm 0.11 in2.8 mm
06:25 PM 42.1°F5.6°C 39.2°F4.0°C 88% 0.7 mph S1.1 kmh S 3.4 mph5.5 kmh 29.30 in992.2 mb 0.00 in0.0 mm 0.00 in0.0 mm 0.11 in2.8 mm
06:30 PM 42.3°F5.7°C 39.2°F4.0°C 88% 1.6 mph SSW2.6 kmh SSW 4.0 mph6.4 kmh 29.30 in992.2 mb 0.00 in0.0 mm 0.00 in0.0 mm 0.11 in2.8 mm
06:35 PM 42.6°F5.9°C 39.2°F4.0°C 88% 3.6 mph S5.8 kmh S 6.9 mph11.1 kmh 29.30 in992.2 mb 0.00 in0.0 mm 0.00 in0.0 mm 0.11 in2.8 mm
06:40 PM 42.6°F5.9°C 39.2°F4.0°C 88% 4.0 mph S6.4 kmh S 6.9 mph11.1 kmh 29.27 in991.2 mb 0.00 in0.0 mm 0.00 in0.0 mm 0.11 in2.8 mm
06:45 PM 42.6°F5.9°C 39.2°F4.0°C 88% 2.6 mph SSE4.2 kmh SSE 6.9 mph11.1 kmh 29.27 in991.2 mb 0.00 in0.0 mm 0.00 in0.0 mm 0.11 in2.8 mm
06:50 PM 42.4°F5.8°C 39.2°F4.0°C 88% 2.0 mph SE3.2 kmh SE 4.9 mph7.9 kmh 29.27 in991.2 mb 0.00 in0.0 mm 0.00 in0.0 mm 0.11 in2.8 mm
06:55 PM 42.4°F5.8°C 39.2°F4.0°C 88% 1.9 mph SE3.1 kmh SE 4.9 mph7.9 kmh 29.27 in991.2 mb 0.00 in0.0 mm 0.00 in0.0 mm 0.11 in2.8 mm
07:00 PM 42.6°F5.9°C 39.2°F4.0°C 88% 2.2 mph S3.5 kmh S 4.0 mph6.4 kmh 29.27 in991.2 mb 0.00 in0.0 mm 0.00 in0.0 mm 0.11 in2.8 mm
07:05 PM 42.6°F5.9°C 39.2°F4.0°C 88% 2.6 mph S4.2 kmh S 4.5 mph7.2 kmh 29.27 in991.2 mb 0.00 in0.0 mm 0.00 in0.0 mm 0.11 in2.8 mm
07:10 PM 42.8°F6.0°C 39.2°F4.0°C 87% 2.4 mph SSW3.9 kmh SSW 5.6 mph9.0 kmh 29.24 in990.2 mb 0.00 in0.0 mm 0.00 in0.0 mm 0.11 in2.8 mm
07:15 PM 42.8°F6.0°C 39.2°F4.0°C 87% 2.0 mph S3.2 kmh S 5.6 mph9.0 kmh 29.24 in990.2 mb 0.00 in0.0 mm 0.00 in0.0 mm 0.11 in2.8 mm
07:20 PM 42.4°F5.8°C 39.2°F4.0°C 87% 1.2 mph SSE1.9 kmh SSE 2.7 mph4.3 kmh 29.24 in990.2 mb 0.00 in0.0 mm 0.00 in0.0 mm 0.11 in2.8 mm
07:25 PM 42.4°F5.8°C 39.2°F4.0°C 87% 1.2 mph S1.9 kmh S 3.6 mph5.8 kmh 29.24 in990.2 mb 0.00 in0.0 mm 0.00 in0.0 mm 0.11 in2.8 mm
07:30 PM 42.4°F5.8°C 39.2°F4.0°C 87% 1.5 mph S2.4 kmh S 3.6 mph5.8 kmh 29.24 in990.2 mb 0.00 in0.0 mm 0.00 in0.0 mm 0.11 in2.8 mm
07:35 PM 42.4°F5.8°C 39.2°F4.0°C 87% 1.7 mph SSE2.7 kmh SSE 3.1 mph5.0 kmh 29.24 in990.2 mb 0.00 in0.0 mm 0.00 in0.0 mm 0.11 in2.8 mm
07:40 PM 42.4°F5.8°C 39.2°F4.0°C 87% 1.8 mph SSE2.9 kmh SSE 3.4 mph5.5 kmh 29.24 in990.2 mb 0.00 in0.0 mm 0.00 in0.0 mm 0.11 in2.8 mm
07:45 PM 42.4°F5.8°C 39.2°F4.0°C 87% 2.4 mph S3.9 kmh S 4.3 mph6.9 kmh 29.24 in990.2 mb 0.00 in0.0 mm 0.00 in0.0 mm 0.11 in2.8 mm
07:50 PM 42.4°F5.8°C 39.2°F4.0°C 87% 2.7 mph S4.3 kmh S 4.3 mph6.9 kmh 29.24 in990.2 mb 0.00 in0.0 mm 0.00 in0.0 mm 0.11 in2.8 mm
07:55 PM 42.4°F5.8°C 39.2°F4.0°C 87% 3.3 mph S5.3 kmh S 5.8 mph9.3 kmh 29.21 in989.2 mb 0.00 in0.0 mm 0.00 in0.0 mm 0.11 in2.8 mm
08:00 PM 42.4°F5.8°C 39.2°F4.0°C 87% 3.5 mph S5.6 kmh S 5.8 mph9.3 kmh 29.21 in989.2 mb 0.00 in0.0 mm 0.00 in0.0 mm 0.11 in2.8 mm
08:05 PM 42.4°F5.8°C 39.2°F4.0°C 87% 3.5 mph S5.6 kmh S 5.6 mph9.0 kmh 29.21 in989.2 mb 0.06 in1.5 mm 0.72 in18.3 mm 0.17 in4.3 mm
08:10 PM 42.6°F5.9°C 39.2°F4.0°C 87% 3.7 mph SSE6.0 kmh SSE 5.6 mph9.0 kmh 29.18 in988.1 mb 0.06 in1.5 mm 0.00 in0.0 mm 0.17 in4.3 mm
08:15 PM 42.6°F5.9°C 39.2°F4.0°C 87% 3.3 mph S5.3 kmh S 5.6 mph9.0 kmh 29.18 in988.1 mb 0.06 in1.5 mm 0.00 in0.0 mm 0.17 in4.3 mm
08:20 PM 42.6°F5.9°C 39.2°F4.0°C 87% 2.6 mph S4.2 kmh S 5.6 mph9.0 kmh 29.18 in988.1 mb 0.06 in1.5 mm 0.00 in0.0 mm 0.17 in4.3 mm
08:25 PM 42.4°F5.8°C 39.2°F4.0°C 88% 1.3 mph S2.1 kmh S 3.4 mph5.5 kmh 29.15 in987.1 mb 0.06 in1.5 mm 0.00 in0.0 mm 0.17 in4.3 mm
08:30 PM 42.4°F5.8°C 39.2°F4.0°C 88% 0.7 mph S1.1 kmh S 2.0 mph3.2 kmh 29.15 in987.1 mb 0.06 in1.5 mm 0.00 in0.0 mm 0.17 in4.3 mm
08:35 PM 42.4°F5.8°C 39.2°F4.0°C 88% 0.5 mph SE0.8 kmh SE 1.3 mph2.1 kmh 29.15 in987.1 mb 0.06 in1.5 mm 0.00 in0.0 mm 0.17 in4.3 mm
08:40 PM 42.3°F5.7°C 39.2°F4.0°C 88% 0.7 mph ESE1.1 kmh ESE 1.6 mph2.6 kmh 29.12 in986.1 mb 0.06 in1.5 mm 0.00 in0.0 mm 0.17 in4.3 mm
08:45 PM 42.3°F5.7°C 39.2°F4.0°C 88% 1.0 mph ESE1.6 kmh ESE 2.0 mph3.2 kmh 29.12 in986.1 mb 0.06 in1.5 mm 0.00 in0.0 mm 0.17 in4.3 mm
08:50 PM 42.3°F5.7°C 39.2°F4.0°C 88% 1.2 mph E1.9 kmh E 2.0 mph3.2 kmh 29.12 in986.1 mb 0.06 in1.5 mm 0.00 in0.0 mm 0.17 in4.3 mm
08:55 PM 42.3°F5.7°C 39.2°F4.0°C 88% 1.7 mph E2.7 kmh E 4.0 mph6.4 kmh 29.09 in985.1 mb 0.11 in2.8 mm 0.60 in15.2 mm 0.22 in5.6 mm
09:00 PM 42.3°F5.7°C 39.2°F4.0°C 88% 1.9 mph ENE3.1 kmh ENE 4.0 mph6.4 kmh 29.09 in985.1 mb 0.11 in2.8 mm 0.00 in0.0 mm 0.22 in5.6 mm
09:05 PM 42.3°F5.7°C 39.2°F4.0°C 88% 2.1 mph E3.4 kmh E 3.8 mph6.1 kmh 29.09 in985.1 mb 0.06 in1.5 mm 0.00 in0.0 mm 0.22 in5.6 mm
09:10 PM 42.4°F5.8°C 39.2°F4.0°C 88% 2.2 mph ESE3.5 kmh ESE 4.7 mph7.6 kmh 29.06 in984.1 mb 0.06 in1.5 mm 0.00 in0.0 mm 0.22 in5.6 mm
09:15 PM 42.4°F5.8°C 39.2°F4.0°C 88% 2.0 mph SE3.2 kmh SE 5.4 mph8.7 kmh 29.06 in984.1 mb 0.06 in1.5 mm 0.00 in0.0 mm 0.22 in5.6 mm
09:20 PM 42.4°F5.8°C 39.2°F4.0°C 88% 2.8 mph ESE4.5 kmh ESE 6.0 mph9.7 kmh 29.06 in984.1 mb 0.06 in1.5 mm 0.00 in0.0 mm 0.22 in5.6 mm
09:25 PM 42.4°F5.8°C 39.2°F4.0°C 89% 3.4 mph SE5.5 kmh SE 6.0 mph9.7 kmh 29.03 in983.1 mb 0.11 in2.8 mm 0.60 in15.2 mm 0.28 in7.1 mm
09:30 PM 42.4°F5.8°C 39.2°F4.0°C 89% 3.1 mph SE5.0 kmh SE 5.8 mph9.3 kmh 29.03 in983.1 mb 0.11 in2.8 mm 0.00 in0.0 mm 0.28 in7.1 mm
09:35 PM 42.4°F5.8°C 39.2°F4.0°C 89% 2.5 mph SE4.0 kmh SE 4.7 mph7.6 kmh 29.03 in983.1 mb 0.11 in2.8 mm 0.00 in0.0 mm 0.28 in7.1 mm
09:40 PM 42.4°F5.8°C 39.2°F4.0°C 89% 2.8 mph ESE4.5 kmh ESE 5.8 mph9.3 kmh 29.00 in982.1 mb 0.17 in4.3 mm 0.72 in18.3 mm 0.34 in8.6 mm
09:45 PM 42.6°F5.9°C 39.2°F4.0°C 89% 3.3 mph E5.3 kmh E 7.4 mph11.9 kmh 29.00 in982.1 mb 0.17 in4.3 mm 0.00 in0.0 mm 0.34 in8.6 mm
09:50 PM 42.6°F5.9°C 39.2°F4.0°C 89% 2.4 mph ENE3.9 kmh ENE 7.4 mph11.9 kmh 29.00 in982.1 mb 0.17 in4.3 mm 0.00 in0.0 mm 0.34 in8.6 mm
09:55 PM 42.6°F5.9°C 39.2°F4.0°C 89% 2.3 mph SW3.7 kmh SW 7.4 mph11.9 kmh 28.97 in981.0 mb 0.11 in2.8 mm 0.00 in0.0 mm 0.34 in8.6 mm
10:00 PM 42.8°F6.0°C 41.0°F5.0°C 89% 3.0 mph SSE4.8 kmh SSE 7.4 mph11.9 kmh 28.97 in981.0 mb 0.11 in2.8 mm 0.00 in0.0 mm 0.34 in8.6 mm
10:05 PM 42.8°F6.0°C 41.0°F5.0°C 89% 2.9 mph ESE4.7 kmh ESE 6.0 mph9.7 kmh 28.97 in981.0 mb 0.11 in2.8 mm 0.00 in0.0 mm 0.34 in8.6 mm
10:10 PM 42.8°F6.0°C 41.0°F5.0°C 89% 2.1 mph E3.4 kmh E 4.9 mph7.9 kmh 28.94 in980.0 mb 0.11 in2.8 mm 0.00 in0.0 mm 0.34 in8.6 mm
10:15 PM 42.8°F6.0°C 41.0°F5.0°C 89% 2.0 mph ESE3.2 kmh ESE 5.4 mph8.7 kmh 28.94 in980.0 mb 0.11 in2.8 mm 0.00 in0.0 mm 0.34 in8.6 mm
10:20 PM 43.0°F6.1°C 41.0°F5.0°C 89% 2.1 mph SE3.4 kmh SE 5.4 mph8.7 kmh 28.94 in980.0 mb 0.11 in2.8 mm 0.00 in0.0 mm 0.34 in8.6 mm
10:25 PM 43.2°F6.2°C 41.0°F5.0°C 90% 2.7 mph SE4.3 kmh SE 5.8 mph9.3 kmh 28.91 in979.0 mb 0.06 in1.5 mm 0.00 in0.0 mm 0.34 in8.6 mm
10:30 PM 43.9°F6.6°C 41.0°F5.0°C 89% 5.2 mph S8.4 kmh S 10.3 mph16.6 kmh 28.91 in979.0 mb 0.11 in2.8 mm 0.60 in15.2 mm 0.39 in9.9 mm
10:35 PM 44.2°F6.8°C 41.0°F5.0°C 89% 8.0 mph S12.9 kmh S 12.8 mph20.6 kmh 28.91 in979.0 mb 0.11 in2.8 mm 0.00 in0.0 mm 0.39 in9.9 mm
10:40 PM 44.4°F6.9°C 41.0°F5.0°C 89% 7.5 mph S12.1 kmh S 12.8 mph20.6 kmh 28.91 in979.0 mb 0.06 in1.5 mm 0.00 in0.0 mm 0.39 in9.9 mm
10:45 PM 44.4°F6.9°C 41.0°F5.0°C 89% 6.5 mph SSW10.5 kmh SSW 9.8 mph15.8 kmh 28.91 in979.0 mb 0.06 in1.5 mm 0.00 in0.0 mm 0.39 in9.9 mm
10:50 PM 44.4°F6.9°C 41.0°F5.0°C 90% 7.2 mph SW11.6 kmh SW 13.0 mph20.9 kmh 28.91 in979.0 mb 0.06 in1.5 mm 0.00 in0.0 mm 0.39 in9.9 mm
10:55 PM 44.6°F7.0°C 41.0°F5.0°C 90% 6.7 mph SW10.8 kmh SW 13.0 mph20.9 kmh 28.88 in978.0 mb 0.06 in1.5 mm 0.00 in0.0 mm 0.39 in9.9 mm
11:00 PM 44.6°F7.0°C 41.0°F5.0°C 90% 6.2 mph SW10.0 kmh SW 12.3 mph19.8 kmh 28.88 in978.0 mb 0.06 in1.5 mm 0.00 in0.0 mm 0.39 in9.9 mm
11:05 PM 44.2°F6.8°C 41.0°F5.0°C 89% 7.2 mph WSW11.6 kmh WSW 16.1 mph25.9 kmh 28.88 in978.0 mb 0.06 in1.5 mm 0.00 in0.0 mm 0.39 in9.9 mm
11:10 PM 44.2°F6.8°C 41.0°F5.0°C 89% 8.3 mph WSW13.4 kmh WSW 16.1 mph25.9 kmh 28.88 in978.0 mb 0.06 in1.5 mm 0.00 in0.0 mm 0.39 in9.9 mm
11:15 PM 44.4°F6.9°C 41.0°F5.0°C 89% 9.5 mph W15.3 kmh W 12.5 mph20.1 kmh 28.88 in978.0 mb 0.06 in1.5 mm 0.00 in0.0 mm 0.39 in9.9 mm
11:20 PM 44.2°F6.8°C 41.0°F5.0°C 89% 8.9 mph WSW14.3 kmh WSW 12.5 mph20.1 kmh 28.88 in978.0 mb 0.06 in1.5 mm 0.00 in0.0 mm 0.39 in9.9 mm
11:25 PM 44.6°F7.0°C 41.0°F5.0°C 89% 7.5 mph WSW12.1 kmh WSW 9.8 mph15.8 kmh 28.88 in978.0 mb 0.06 in1.5 mm 0.00 in0.0 mm 0.39 in9.9 mm
11:30 PM 44.6°F7.0°C 41.0°F5.0°C 89% 7.9 mph WSW12.7 kmh WSW 13.0 mph20.9 kmh 28.88 in978.0 mb 0.00 in0.0 mm 0.00 in0.0 mm 0.39 in9.9 mm
11:35 PM 44.8°F7.1°C 41.0°F5.0°C 88% 9.1 mph WSW14.6 kmh WSW 17.0 mph27.4 kmh 28.88 in978.0 mb 0.00 in0.0 mm 0.00 in0.0 mm 0.39 in9.9 mm
11:40 PM 45.0°F7.2°C 41.0°F5.0°C 88% 11.0 mph WSW17.7 kmh WSW 17.0 mph27.4 kmh 28.88 in978.0 mb 0.00 in0.0 mm 0.00 in0.0 mm 0.39 in9.9 mm
11:45 PM 45.0°F7.2°C 41.0°F5.0°C 87% 11.1 mph WSW17.9 kmh WSW 15.2 mph24.5 kmh 28.88 in978.0 mb 0.00 in0.0 mm 0.00 in0.0 mm 0.39 in9.9 mm
11:50 PM 45.0°F7.2°C 41.0°F5.0°C 85% 9.6 mph WSW15.4 kmh WSW 14.1 mph22.7 kmh 28.88 in978.0 mb 0.00 in0.0 mm 0.00 in0.0 mm 0.39 in9.9 mm
11:55 PM 44.6°F7.0°C 41.0°F5.0°C 85% 10.9 mph WSW17.5 kmh WSW 20.6 mph33.2 kmh 28.88 in978.0 mb 0.00 in0.0 mm 0.00 in0.0 mm 0.39 in9.9 mm